createdAt,value
2018-12-23T00:01:45.701Z,-8.13
2018-12-23T00:04:15.070Z,-9.26
2018-12-23T00:06:44.084Z,-8.10
2018-12-23T00:09:13.395Z,-8.12
2018-12-23T00:11:42.200Z,-8.18
2018-12-23T00:14:11.219Z,-8.17
2018-12-23T00:16:39.964Z,-8.14
2018-12-23T00:19:08.878Z,-8.09
2018-12-23T00:21:37.571Z,-8.06
2018-12-23T00:24:06.516Z,-8.04
2018-12-23T00:26:35.446Z,-8.06
2018-12-23T00:29:04.750Z,-8.08
2018-12-23T00:31:33.411Z,-8.00
2018-12-23T00:34:02.198Z,-7.97
2018-12-23T00:36:31.124Z,-7.98
2018-12-23T00:38:59.929Z,-7.97
2018-12-23T00:41:28.910Z,-7.93
2018-12-23T00:43:58.038Z,-7.94
2018-12-23T00:46:26.793Z,-8.03
2018-12-23T00:48:55.869Z,-8.11
2018-12-23T00:51:25.087Z,-8.21
2018-12-23T00:53:53.986Z,-8.17
2018-12-23T00:56:22.846Z,-8.15
2018-12-23T00:58:51.764Z,-8.13
2018-12-23T01:01:20.837Z,-8.12
2018-12-23T01:03:50.745Z,-8.07
2018-12-23T01:06:20.073Z,-8.11
2018-12-23T01:08:48.868Z,-8.08
2018-12-23T01:11:17.783Z,-8.13
2018-12-23T01:13:46.804Z,-8.20
2018-12-23T01:16:15.673Z,-8.20
2018-12-23T01:18:44.554Z,-8.18
2018-12-23T01:21:13.756Z,-9.33
2018-12-23T01:23:42.677Z,-8.17
2018-12-23T01:26:11.850Z,-8.10
2018-12-23T01:28:41.303Z,-8.12
2018-12-23T01:31:10.173Z,-8.21
2018-12-23T01:33:39.329Z,-8.26
2018-12-23T01:36:08.589Z,-8.26
2018-12-23T01:38:37.578Z,-8.25
2018-12-23T01:41:06.694Z,-8.26
2018-12-23T01:43:35.462Z,-8.30
2018-12-23T01:46:04.288Z,-8.32
2018-12-23T01:48:33.374Z,-8.29
2018-12-23T01:51:02.312Z,-8.32
2018-12-23T01:53:31.081Z,-8.30
2018-12-23T01:56:00.743Z,-8.27
2018-12-23T01:58:29.501Z,-8.28
2018-12-23T02:00:58.490Z,-8.31
2018-12-23T02:03:27.536Z,-8.28
2018-12-23T02:05:56.472Z,-8.30
2018-12-23T02:08:25.252Z,-8.39
2018-12-23T02:10:54.562Z,-8.43
2018-12-23T02:13:23.328Z,-8.44
2018-12-23T02:15:51.975Z,-8.47
2018-12-23T02:18:21.033Z,-8.51
2018-12-23T02:20:50.001Z,-8.46
2018-12-23T02:23:19.103Z,-8.47
2018-12-23T02:25:48.114Z,-8.41
2018-12-23T02:28:16.786Z,-8.47
2018-12-23T02:30:45.856Z,-8.45
2018-12-23T02:33:14.742Z,-8.48
2018-12-23T02:35:43.761Z,-8.44
2018-12-23T02:38:12.848Z,-8.37
2018-12-23T02:40:41.573Z,-8.30
2018-12-23T02:43:10.478Z,-8.32
2018-12-23T02:45:39.270Z,-8.33
2018-12-23T02:48:08.091Z,-8.37
2018-12-23T02:50:36.892Z,-8.45
2018-12-23T02:53:05.732Z,-8.41
2018-12-23T02:55:34.786Z,-8.39
2018-12-23T02:58:03.675Z,-8.36
2018-12-23T03:00:32.617Z,-8.33
2018-12-23T03:03:01.634Z,-8.31
2018-12-23T03:05:30.672Z,-8.25
2018-12-23T03:07:59.408Z,-8.20
2018-12-23T03:10:28.992Z,-8.17
2018-12-23T03:12:57.671Z,-8.18
2018-12-23T03:15:26.480Z,-8.18
2018-12-23T03:17:55.563Z,-8.19
2018-12-23T03:20:24.455Z,-8.26
2018-12-23T03:22:53.217Z,-8.26
2018-12-23T03:25:22.313Z,-8.30
2018-12-23T03:27:51.045Z,-8.39
2018-12-23T03:30:19.735Z,-8.44
2018-12-23T03:32:48.853Z,-8.55
2018-12-23T03:35:17.567Z,-8.59
2018-12-23T03:37:46.536Z,-8.60
2018-12-23T03:40:15.588Z,-8.64
2018-12-23T03:42:44.318Z,-8.62
2018-12-23T03:45:13.021Z,-8.64
2018-12-23T03:47:41.843Z,-8.67
2018-12-23T03:50:10.800Z,-8.68
2018-12-23T03:52:39.643Z,-8.72
2018-12-23T03:55:08.669Z,-8.74
2018-12-23T03:57:37.431Z,-8.77
2018-12-23T04:00:06.632Z,-8.79
2018-12-23T04:02:35.284Z,-8.82
2018-12-23T04:05:05.210Z,-8.82
2018-12-23T04:07:34.253Z,-8.86
2018-12-23T04:10:03.042Z,-8.90
2018-12-23T04:12:32.182Z,-8.91
2018-12-23T04:15:01.189Z,-8.90
2018-12-23T04:17:30.297Z,-8.93
2018-12-23T04:19:59.312Z,-9.00
2018-12-23T04:22:28.171Z,-9.06
2018-12-23T04:24:57.001Z,-9.13
2018-12-23T04:27:26.035Z,-9.19
2018-12-23T04:29:55.226Z,-9.29
2018-12-23T04:32:24.168Z,-9.35
2018-12-23T04:34:52.996Z,-9.41
2018-12-23T04:37:21.952Z,-9.54
2018-12-23T04:39:50.779Z,-9.61
2018-12-23T04:42:19.448Z,-9.64
2018-12-23T04:44:49.236Z,-9.72
2018-12-23T04:47:18.274Z,-9.81
2018-12-23T04:49:47.234Z,-9.87
2018-12-23T04:52:15.986Z,-9.89
2018-12-23T04:54:44.772Z,-9.87
2018-12-23T04:57:14.025Z,-9.87
2018-12-23T04:59:43.046Z,-9.85
2018-12-23T05:02:11.808Z,-9.85
2018-12-23T05:04:40.800Z,-9.82
2018-12-23T05:07:09.902Z,-9.80
2018-12-23T05:09:38.909Z,-9.75
2018-12-23T05:12:08.065Z,-9.74
2018-12-23T05:14:36.979Z,-9.73
2018-12-23T05:17:05.940Z,-9.70
2018-12-23T05:19:34.776Z,-9.74
2018-12-23T05:22:03.680Z,-9.77
2018-12-23T05:24:32.714Z,-9.96
2018-12-23T05:27:01.629Z,-9.85
2018-12-23T05:29:30.855Z,-9.87
2018-12-23T05:31:59.649Z,-9.87
2018-12-23T05:34:28.565Z,-9.84
2018-12-23T05:38:00.952Z,-9.88
2018-12-23T05:40:30.070Z,-9.86
2018-12-23T05:42:59.333Z,-9.87
2018-12-23T05:45:28.290Z,-9.84
2018-12-23T05:47:57.609Z,-9.80
2018-12-23T05:50:26.323Z,-9.79
2018-12-23T05:52:55.501Z,-9.77
2018-12-23T05:55:26.165Z,-9.74
2018-12-23T05:57:55.275Z,-9.71
2018-12-23T06:00:24.392Z,-9.66
2018-12-23T06:02:53.028Z,-9.63
2018-12-23T06:05:21.788Z,-9.59
2018-12-23T06:07:51.112Z,-9.61
2018-12-23T06:10:19.999Z,-9.58
2018-12-23T06:12:48.798Z,-9.56
2018-12-23T06:15:17.793Z,-9.52
2018-12-23T06:17:47.113Z,-9.54
2018-12-23T06:20:16.195Z,-9.55
2018-12-23T06:22:45.185Z,-9.52
2018-12-23T06:25:14.253Z,-9.49
2018-12-23T06:27:43.524Z,-9.49
2018-12-23T06:30:12.726Z,-9.49
2018-12-23T06:33:44.895Z,-9.49
2018-12-23T06:36:13.986Z,-9.58
2018-12-23T06:38:42.873Z,-9.70
2018-12-23T06:41:11.943Z,-9.76
2018-12-23T06:43:40.661Z,-9.70
2018-12-23T06:46:11.048Z,-11.28
2018-12-23T06:48:40.302Z,-9.79
2018-12-23T06:51:09.516Z,-9.77
2018-12-23T06:53:38.878Z,-9.82
2018-12-23T06:56:07.834Z,-9.83
2018-12-23T06:58:36.857Z,-9.86
2018-12-23T07:01:06.053Z,-9.85
2018-12-23T07:03:35.135Z,-9.88
2018-12-23T07:06:04.177Z,-9.87
2018-12-23T07:08:33.218Z,-9.88
2018-12-23T07:11:05.199Z,-9.90
2018-12-23T07:13:34.613Z,-9.91
2018-12-23T07:16:03.726Z,-9.93
2018-12-23T07:18:32.691Z,-9.96
2018-12-23T07:21:01.780Z,-9.99
2018-12-23T07:23:30.902Z,-10.00
2018-12-23T07:25:59.831Z,-10.05
2018-12-23T07:28:28.939Z,-10.18
2018-12-23T07:30:57.864Z,-10.20
2018-12-23T07:33:26.760Z,-10.26
2018-12-23T07:35:55.760Z,-10.31
2018-12-23T07:38:24.788Z,-10.39
2018-12-23T07:40:53.521Z,-10.47
2018-12-23T07:43:22.493Z,-10.49
2018-12-23T07:45:51.623Z,-10.52
2018-12-23T07:48:20.535Z,-10.54
2018-12-23T07:50:49.928Z,-10.68
2018-12-23T07:53:18.957Z,-10.79
2018-12-23T07:55:47.993Z,-10.85
2018-12-23T07:58:16.912Z,-10.93
2018-12-23T08:00:46.045Z,-10.94
2018-12-23T08:03:15.363Z,-11.00
2018-12-23T08:05:44.387Z,-11.11
2018-12-23T08:08:13.288Z,-11.12
2018-12-23T08:10:43.057Z,-11.13
2018-12-23T08:13:11.790Z,-11.12
2018-12-23T08:15:40.894Z,-11.16
2018-12-23T08:18:10.115Z,-11.18
2018-12-23T08:20:39.381Z,-11.21
2018-12-23T08:23:08.515Z,-11.27
2018-12-23T08:25:37.394Z,-11.35
2018-12-23T08:28:06.374Z,-11.43
2018-12-23T08:30:35.464Z,-11.51
2018-12-23T08:34:07.437Z,-11.58
2018-12-23T08:36:36.345Z,-11.69
2018-12-23T08:39:06.821Z,-11.82
2018-12-23T08:41:35.874Z,-11.90
2018-12-23T08:44:04.958Z,-12.05
2018-12-23T08:46:39.085Z,-12.13
2018-12-23T08:49:05.018Z,-12.14
2018-12-23T08:51:34.177Z,-12.20
2018-12-23T08:54:03.083Z,-12.27
2018-12-23T08:56:32.304Z,-12.33
2018-12-23T08:59:01.448Z,-12.39
2018-12-23T09:01:30.916Z,-12.39
2018-12-23T09:04:00.503Z,-12.40
2018-12-23T09:06:29.478Z,-12.49
2018-12-23T09:08:58.632Z,-12.51
2018-12-23T09:11:27.677Z,-12.48
2018-12-23T09:13:56.919Z,-12.48
2018-12-23T09:16:25.908Z,-12.53
2018-12-23T09:18:55.039Z,-12.57
2018-12-23T09:21:24.210Z,-12.58
2018-12-23T09:23:54.274Z,-12.62
2018-12-23T09:26:23.230Z,-12.67
2018-12-23T09:28:52.180Z,-12.66
2018-12-23T09:31:21.418Z,-12.67
2018-12-23T09:33:51.724Z,-12.67
2018-12-23T09:36:51.492Z,-12.67
2018-12-23T09:39:20.542Z,-12.65
2018-12-23T09:41:49.535Z,-12.65
2018-12-23T09:44:18.526Z,-12.63
2018-12-23T09:46:47.400Z,-12.66
2018-12-23T09:49:16.605Z,-12.68
2018-12-23T09:51:45.695Z,-12.71
2018-12-23T09:54:15.610Z,-12.74
2018-12-23T09:56:44.977Z,-12.84
2018-12-23T09:59:13.957Z,-13.02
2018-12-23T10:01:43.058Z,-13.05
2018-12-23T10:04:12.165Z,-13.02
2018-12-23T10:06:41.218Z,-13.01
2018-12-23T10:09:10.580Z,-13.05
2018-12-23T10:11:39.481Z,-13.02
2018-12-23T10:14:08.212Z,-13.04
2018-12-23T10:16:37.419Z,-13.09
2018-12-23T10:19:06.379Z,-13.08
2018-12-23T10:21:35.464Z,-13.06
2018-12-23T10:24:04.708Z,-13.05
2018-12-23T10:26:33.757Z,-13.09
2018-12-23T10:29:02.967Z,-13.12
2018-12-23T10:31:31.969Z,-13.12
2018-12-23T10:34:00.784Z,-13.16
2018-12-23T10:36:29.808Z,-13.23
2018-12-23T10:38:59.047Z,-13.26
2018-12-23T10:41:27.832Z,-13.28
2018-12-23T10:43:56.840Z,-13.28
2018-12-23T10:46:25.507Z,-13.24
2018-12-23T10:48:54.443Z,-13.26
2018-12-23T10:51:23.535Z,-13.38
2018-12-23T10:53:52.507Z,-13.47
2018-12-23T10:56:21.340Z,-13.53
2018-12-23T10:58:50.135Z,-13.51
2018-12-23T11:01:19.176Z,-13.47
2018-12-23T11:03:47.899Z,-13.45
2018-12-23T11:06:16.846Z,-13.41
2018-12-23T11:08:45.511Z,-13.37
2018-12-23T11:11:14.552Z,-13.36
2018-12-23T11:13:43.215Z,-13.49
2018-12-23T11:16:12.064Z,-13.57
2018-12-23T11:18:41.262Z,-14.50
2018-12-23T11:21:10.669Z,-14.68
2018-12-23T11:23:40.001Z,-13.56
2018-12-23T11:26:08.747Z,-13.57
2018-12-23T11:28:37.832Z,-13.58
2018-12-23T11:31:06.570Z,-13.57
2018-12-23T11:33:35.279Z,-13.54
2018-12-23T11:36:04.109Z,-13.58
2018-12-23T11:38:35.574Z,-13.61
2018-12-23T11:41:04.394Z,-13.58
2018-12-23T11:43:33.354Z,-13.58
2018-12-23T11:46:02.238Z,-13.53
2018-12-23T11:48:30.929Z,-13.46
2018-12-23T11:50:59.636Z,-13.48
2018-12-23T11:53:28.289Z,-13.48
2018-12-23T11:55:56.982Z,-13.46
2018-12-23T11:58:25.744Z,-13.44
2018-12-23T12:00:54.511Z,-13.39
2018-12-23T12:03:23.398Z,-13.39
2018-12-23T12:05:52.395Z,-13.44
2018-12-23T12:08:21.175Z,-13.44
2018-12-23T12:10:49.994Z,-13.47
2018-12-23T12:13:19.371Z,-13.50
2018-12-23T12:15:48.081Z,-13.49
2018-12-23T12:18:17.344Z,-13.49
2018-12-23T12:20:46.043Z,-13.47
2018-12-23T12:23:15.015Z,-13.53
2018-12-23T12:25:43.799Z,-13.57
2018-12-23T12:28:12.460Z,-13.57
2018-12-23T12:30:41.343Z,-13.67
2018-12-23T12:33:10.305Z,-13.79
2018-12-23T12:35:39.205Z,-13.81
2018-12-23T12:38:07.942Z,-13.87
2018-12-23T12:40:36.880Z,-14.00
2018-12-23T12:43:05.641Z,-14.12
2018-12-23T12:45:34.725Z,-14.16
2018-12-23T12:48:03.460Z,-14.18
2018-12-23T12:50:32.252Z,-14.21
2018-12-23T12:53:01.993Z,-14.19
2018-12-23T12:55:30.766Z,-14.18
2018-12-23T12:57:59.546Z,-14.20
2018-12-23T13:00:28.305Z,-14.26
2018-12-23T13:02:57.057Z,-14.28
2018-12-23T13:05:25.881Z,-14.35
2018-12-23T13:07:55.149Z,-14.40
2018-12-23T13:10:24.175Z,-14.45
2018-12-23T13:12:53.348Z,-14.46
2018-12-23T13:15:22.871Z,-14.58
2018-12-23T13:17:51.688Z,-14.63
2018-12-23T13:20:20.535Z,-14.64
2018-12-23T13:22:49.252Z,-14.68
2018-12-23T13:25:18.249Z,-14.70
2018-12-23T13:27:47.155Z,-14.77
2018-12-23T13:30:16.083Z,-14.79
2018-12-23T13:32:44.863Z,-14.85
2018-12-23T13:35:14.059Z,-15.04
2018-12-23T13:37:42.824Z,-15.15
2018-12-23T13:42:23.076Z,-15.24
2018-12-23T13:45:33.202Z,-15.29
2018-12-23T13:50:14.051Z,-15.28
2018-12-23T13:52:50.783Z,-15.33
2018-12-23T13:56:36.085Z,-15.33
2018-12-23T13:59:15.113Z,-15.41
2018-12-23T14:01:55.349Z,-15.44
2018-12-23T14:04:39.928Z,-15.44
2018-12-23T14:08:03.314Z,-15.40
2018-12-23T14:11:00.250Z,-15.44
2018-12-23T14:13:29.172Z,-15.45
2018-12-23T14:15:57.934Z,-15.46
2018-12-23T14:18:26.739Z,-15.47
2018-12-23T14:20:55.636Z,-15.47
2018-12-23T14:23:24.436Z,-15.48
2018-12-23T14:29:24.271Z,-15.56
2018-12-23T14:31:52.986Z,-15.56
2018-12-23T14:34:21.770Z,-15.56
2018-12-23T14:36:51.242Z,-15.58
2018-12-23T14:39:26.155Z,-15.63
2018-12-23T14:41:51.424Z,-15.65
2018-12-23T14:44:20.431Z,-15.70
2018-12-23T14:46:49.561Z,-15.65
2018-12-23T14:49:18.339Z,-15.64
2018-12-23T14:51:47.605Z,-15.65
2018-12-23T14:54:16.621Z,-15.66
2018-12-23T14:56:45.776Z,-15.59
2018-12-23T14:59:14.823Z,-15.55
2018-12-23T15:01:43.789Z,-15.57
2018-12-23T15:04:12.826Z,-15.58
2018-12-23T15:06:41.892Z,-15.63
2018-12-23T15:09:11.361Z,-15.62
2018-12-23T15:11:40.463Z,-15.63
2018-12-23T15:14:09.476Z,-15.64
2018-12-23T15:16:38.715Z,-15.66
2018-12-23T15:19:08.067Z,-15.67
2018-12-23T15:21:37.029Z,-15.73
2018-12-23T15:24:06.232Z,-15.74
2018-12-23T15:26:35.341Z,-15.73
2018-12-23T15:29:05.187Z,-15.74
2018-12-23T15:31:34.608Z,-15.72
2018-12-23T15:34:03.723Z,-15.73
2018-12-23T15:36:32.383Z,-15.76
2018-12-23T15:39:01.283Z,-15.81
2018-12-23T15:41:30.205Z,-15.87
2018-12-23T15:43:58.986Z,-15.92
2018-12-23T15:46:28.078Z,-15.91
2018-12-23T15:48:57.567Z,-15.92
2018-12-23T15:51:26.377Z,-15.98
2018-12-23T15:53:55.408Z,-15.97
2018-12-23T15:56:24.699Z,-15.97
2018-12-23T15:58:53.397Z,-15.97
2018-12-23T16:01:22.496Z,-15.96
2018-12-23T16:03:51.600Z,-15.95
2018-12-23T16:06:20.919Z,-15.96
2018-12-23T16:08:50.007Z,-15.96
2018-12-23T16:11:19.034Z,-16.16
2018-12-23T16:13:47.844Z,-16.23
2018-12-23T16:16:16.668Z,-16.25
2018-12-23T16:18:45.536Z,-16.22
2018-12-23T16:21:14.343Z,-16.23
2018-12-23T16:23:43.138Z,-16.21
2018-12-23T16:26:11.899Z,-16.22
2018-12-23T16:28:40.727Z,-16.22
2018-12-23T16:31:09.804Z,-16.23
2018-12-23T16:33:39.495Z,-16.23
2018-12-23T16:36:08.312Z,-16.25
2018-12-23T16:38:37.384Z,-16.28
2018-12-23T16:41:06.487Z,-16.33
2018-12-23T16:43:35.433Z,-16.36
2018-12-23T16:46:04.761Z,-16.36
2018-12-23T16:48:33.592Z,-16.38
2018-12-23T16:51:02.412Z,-16.46
2018-12-23T16:53:31.215Z,-16.54
2018-12-23T16:55:59.941Z,-16.60
2018-12-23T16:58:28.723Z,-16.65
2018-12-23T17:00:57.806Z,-16.70
2018-12-23T17:03:26.709Z,-16.70
2018-12-23T17:05:55.420Z,-16.72
2018-12-23T17:08:24.209Z,-16.78
2018-12-23T17:10:53.514Z,-16.78
2018-12-23T17:13:22.407Z,-16.78
2018-12-23T17:15:51.156Z,-16.77
2018-12-23T17:18:19.972Z,-16.76
2018-12-23T17:20:48.788Z,-16.78
2018-12-23T17:23:17.527Z,-16.79
2018-12-23T17:25:46.211Z,-16.74
2018-12-23T17:28:14.931Z,-16.75
2018-12-23T17:30:43.781Z,-16.75
2018-12-23T17:33:12.973Z,-16.72
2018-12-23T17:35:41.638Z,-16.74
2018-12-23T17:38:10.895Z,-16.86
2018-12-23T17:40:39.863Z,-17.00
2018-12-23T17:43:08.748Z,-17.04
2018-12-23T17:45:38.427Z,-17.06
2018-12-23T17:48:07.436Z,-17.06
2018-12-23T17:50:36.521Z,-17.28
2018-12-23T17:53:05.607Z,-16.93
2018-12-23T17:55:34.293Z,-17.00
2018-12-23T17:58:03.175Z,-17.05
2018-12-23T18:00:32.071Z,-17.05
2018-12-23T18:03:01.134Z,-17.02
2018-12-23T18:05:29.901Z,-17.00
2018-12-23T18:07:58.592Z,-17.04
2018-12-23T18:10:27.627Z,-17.08
2018-12-23T18:12:56.502Z,-17.11
2018-12-23T18:15:27.070Z,-17.09
2018-12-23T18:17:56.003Z,-17.09
2018-12-23T18:20:24.737Z,-17.11
2018-12-23T18:22:53.467Z,-17.17
2018-12-23T18:25:22.396Z,-17.17
2018-12-23T18:27:51.197Z,-17.14
2018-12-23T18:30:19.982Z,-17.12
2018-12-23T18:32:48.728Z,-17.17
2018-12-23T18:35:17.881Z,-17.12
2018-12-23T18:37:47.145Z,-17.12
2018-12-23T18:40:15.871Z,-17.12
2018-12-23T18:42:44.721Z,-17.11
2018-12-23T18:45:13.512Z,-17.10
2018-12-23T18:47:42.240Z,-17.07
2018-12-23T18:50:11.136Z,-17.08
2018-12-23T18:52:40.149Z,-17.10
2018-12-23T18:55:08.835Z,-17.11
2018-12-23T18:57:42.238Z,-17.09
2018-12-23T19:00:12.051Z,-17.09
2018-12-23T19:02:47.252Z,-17.11
2018-12-23T19:05:16.456Z,-17.16
2018-12-23T19:07:47.940Z,-17.17
2018-12-23T19:12:32.703Z,-17.17
2018-12-23T19:16:13.124Z,-17.09
2018-12-23T19:19:10.232Z,-17.08
2018-12-23T19:22:49.639Z,-17.12
2018-12-23T19:25:29.437Z,-17.14
2018-12-23T19:28:24.935Z,-17.18
2018-12-23T19:31:15.671Z,-17.15
2018-12-23T19:36:57.896Z,-17.11
2018-12-23T19:39:39.595Z,-17.09
2018-12-23T19:42:23.316Z,-17.15
2018-12-23T19:45:26.170Z,-17.35
2018-12-23T19:48:18.039Z,-17.31
2018-12-23T19:51:00.718Z,-17.27
2018-12-23T19:53:58.276Z,-17.34
2018-12-23T19:56:44.739Z,-17.44
2018-12-23T19:59:57.810Z,-17.37
2018-12-23T20:02:38.409Z,-17.27
2018-12-23T20:05:19.698Z,-17.25
2018-12-23T20:08:06.297Z,-17.20
2018-12-23T20:14:52.881Z,-17.15
2018-12-23T20:17:32.555Z,-17.01
2018-12-23T20:21:20.008Z,-16.82
2018-12-23T20:23:59.964Z,-16.65
2018-12-23T20:27:04.394Z,-16.35
2018-12-23T20:31:45.096Z,-16.09
2018-12-23T20:36:39.652Z,-15.90
2018-12-23T20:39:24.055Z,-15.70
2018-12-23T20:42:39.240Z,-15.63
2018-12-23T20:47:27.055Z,-15.58
2018-12-23T20:52:18.844Z,-15.69
2018-12-23T20:55:29.311Z,-15.98
2018-12-23T20:58:27.934Z,-16.12
2018-12-23T21:01:22.967Z,-16.20
2018-12-23T21:08:10.809Z,-16.23
2018-12-23T21:10:59.539Z,-16.38
2018-12-23T21:15:55.303Z,-16.37
2018-12-23T21:18:47.897Z,-16.26
2018-12-23T21:22:30.058Z,-16.07
2018-12-23T21:25:11.576Z,-15.84
2018-12-23T21:27:56.991Z,-15.86
2018-12-23T21:30:41.989Z,-15.97
2018-12-23T21:33:21.849Z,-16.15
2018-12-23T21:37:37.411Z,-16.26
2018-12-23T21:40:17.863Z,-16.48
2018-12-23T21:43:32.063Z,-16.62
2018-12-23T21:46:42.714Z,-16.63
2018-12-23T21:49:27.023Z,-16.61
2018-12-23T21:53:15.081Z,-16.60
2018-12-23T21:55:59.880Z,-16.66
2018-12-23T22:00:50.415Z,-16.74
2018-12-23T22:03:46.731Z,-16.81
2018-12-23T22:06:32.019Z,-16.75
2018-12-23T22:11:18.810Z,-16.71
2018-12-23T22:13:47.636Z,-16.64
2018-12-23T22:16:16.399Z,-16.60
2018-12-23T22:18:45.247Z,-16.58
2018-12-23T22:21:13.960Z,-16.61
2018-12-23T22:23:42.970Z,-16.59
2018-12-23T22:26:11.710Z,-16.59
2018-12-23T22:28:40.699Z,-16.54
2018-12-23T22:31:09.807Z,-16.55
2018-12-23T22:33:39.022Z,-16.58
2018-12-23T22:36:07.736Z,-16.59
2018-12-23T22:42:28.618Z,-16.55
2018-12-23T22:48:19.213Z,-16.47
2018-12-23T22:50:48.662Z,-16.39
2018-12-23T22:53:57.563Z,-16.33
2018-12-23T23:05:44.262Z,-16.22
2018-12-23T23:08:13.650Z,-16.13
2018-12-23T23:10:43.114Z,-16.09
2018-12-23T23:13:51.993Z,-16.12
2018-12-23T23:19:23.300Z,-15.94
2018-12-23T23:22:32.993Z,-15.89
2018-12-23T23:25:02.472Z,-15.80
2018-12-23T23:27:34.063Z,-15.76
2018-12-23T23:30:03.502Z,-15.69
2018-12-23T23:32:33.769Z,-15.61
2018-12-23T23:38:17.254Z,-15.47
2018-12-23T23:43:56.331Z,-15.41
2018-12-23T23:49:27.507Z,-15.28
2018-12-23T23:55:06.949Z,-15.13
